Time;durP1;ratioP1;P1;durP2;ratioP2;P2;SDS_P1;SDS_P2;PMS_P1;PMS_P2;Temp;Humidity;BMP_temperature;BMP_pressure;BME280_temperature;BME280_humidity;BME280_pressure;Samples;Min_cycle;Max_cycle;Signal;HPM_P1;HPM_P2
2021/03/08 00:00:52;;;;;;;20.70;10.30;;;5.60;83.00;;;;;;5079446;28;20024;-58
2021/03/08 00:03:18;;;;;;;17.85;10.23;;;5.60;83.00;;;;;;5080087;28;20495;-59
2021/03/08 00:05:44;;;;;;;22.48;11.25;;;5.60;83.10;;;;;;5081217;28;20043;-58
2021/03/08 00:08:12;;;;;;;22.13;11.00;;;5.60;83.10;;;;;;5080695;28;20093;-58
2021/03/08 00:10:38;;;;;;;17.77;10.63;;;5.60;83.40;;;;;;5081728;28;20040;-57
2021/03/08 00:13:04;;;;;;;21.10;10.45;;;5.60;83.40;;;;;;5080999;28;20089;-58
2021/03/08 00:15:30;;;;;;;17.15;9.95;;;5.60;83.00;;;;;;5081523;28;20261;-57
2021/03/08 00:17:56;;;;;;;18.42;9.55;;;5.60;83.20;;;;;;5079277;28;21042;-58
2021/03/08 00:20:27;;;;;;;16.77;9.40;;;5.60;83.20;;;;;;5080789;28;20032;-58
2021/03/08 00:22:56;;;;;;;16.73;9.60;;;5.60;83.20;;;;;;5076296;28;20055;-58
2021/03/08 00:25:27;;;;;;;16.45;8.32;;;5.60;83.20;;;;;;5075944;28;20035;-58
2021/03/08 00:27:54;;;;;;;15.82;9.00;;;5.60;83.50;;;;;;5075815;28;20419;-59
2021/03/08 00:30:20;;;;;;;14.02;7.68;;;5.60;83.40;;;;;;5075300;28;20075;-58
2021/03/08 00:32:46;;;;;;;15.13;8.63;;;5.60;83.50;;;;;;5076035;28;20060;-58
2021/03/08 00:35:12;;;;;;;16.92;8.82;;;5.60;83.50;;;;;;5075151;28;20584;-58
2021/03/08 00:37:38;;;;;;;14.75;8.38;;;5.60;83.40;;;;;;5075342;28;20161;-58
2021/03/08 00:40:10;;;;;;;13.43;7.80;;;5.60;83.30;;;;;;5075499;28;20136;-58
2021/03/08 00:42:36;;;;;;;12.00;7.18;;;5.60;83.60;;;;;;5075551;28;20035;-58
2021/03/08 00:45:05;;;;;;;18.70;8.57;;;5.60;83.70;;;;;;5074830;28;20024;-58
2021/03/08 00:47:31;;;;;;;15.13;8.13;;;5.60;83.70;;;;;;5075750;28;20028;-58
2021/03/08 00:49:57;;;;;;;12.55;7.18;;;5.60;83.50;;;;;;5074515;28;20028;-58
2021/03/08 00:52:23;;;;;;;13.82;7.60;;;5.60;83.60;;;;;;5075580;28;20872;-58
2021/03/08 00:54:48;;;;;;;11.85;7.35;;;5.60;84.10;;;;;;5076851;28;20032;-61
2021/03/08 00:57:15;;;;;;;11.77;7.65;;;5.60;83.30;;;;;;5076628;28;20024;-58
2021/03/08 00:59:46;;;;;;;11.60;6.82;;;5.60;83.30;;;;;;5077645;28;20034;-58
2021/03/08 01:02:12;;;;;;;12.75;7.47;;;5.60;83.40;;;;;;5077798;28;20424;-58
2021/03/08 01:04:39;;;;;;;14.25;7.55;;;5.50;83.40;;;;;;5078219;28;20046;-56
2021/03/08 01:07:05;;;;;;;14.65;7.93;;;5.50;83.80;;;;;;5076298;28;20847;-58
2021/03/08 01:09:31;;;;;;;13.23;7.40;;;5.50;83.90;;;;;;5076629;28;20555;-58
2021/03/08 01:11:58;;;;;;;12.63;7.35;;;5.50;84.00;;;;;;5078522;28;20036;-58
2021/03/08 01:14:28;;;;;;;17.10;8.63;;;5.50;83.60;;;;;;5077286;28;20039;-58
2021/03/08 01:16:54;;;;;;;11.65;6.97;;;5.50;83.60;;;;;;5078862;28;20032;-58
2021/03/08 01:19:19;;;;;;;13.60;6.82;;;5.50;83.70;;;;;;5078307;28;20043;-58
2021/03/08 01:21:45;;;;;;;11.77;7.53;;;5.50;83.90;;;;;;5078906;28;20098;-58
2021/03/08 01:24:11;;;;;;;10.05;6.15;;;5.40;84.40;;;;;;5078793;28;20055;-58
2021/03/08 01:26:36;;;;;;;14.50;6.70;;;5.40;83.80;;;;;;5079345;28;20028;-58
2021/03/08 01:29:03;;;;;;;13.05;6.80;;;5.50;83.90;;;;;;5078411;28;20119;-58
2021/03/08 01:31:29;;;;;;;13.48;7.82;;;5.40;84.00;;;;;;5079202;28;20449;-58
2021/03/08 01:33:54;;;;;;;10.93;6.75;;;5.40;83.80;;;;;;5079039;28;20082;-58
2021/03/08 01:36:20;;;;;;;10.73;6.65;;;5.30;83.80;;;;;;5076553;28;20032;-58
2021/03/08 01:38:47;;;;;;;13.10;6.70;;;5.30;83.80;;;;;;5078788;28;20032;-59
2021/03/08 01:41:13;;;;;;;12.50;7.28;;;5.30;83.80;;;;;;5078833;28;20805;-58
2021/03/08 01:43:39;;;;;;;12.45;6.07;;;5.30;83.80;;;;;;5078749;28;20137;-58
2021/03/08 01:46:05;;;;;;;12.07;6.22;;;5.30;83.70;;;;;;5078539;28;20143;-58
2021/03/08 01:48:31;;;;;;;11.80;6.78;;;5.30;83.70;;;;;;5078645;28;20039;-58
2021/03/08 01:50:56;;;;;;;9.27;6.10;;;5.20;83.70;;;;;;5076115;28;20129;-58
2021/03/08 01:53:25;;;;;;;9.27;5.78;;;5.20;83.90;;;;;;5077869;28;20055;-58
2021/03/08 01:55:51;;;;;;;10.32;5.88;;;5.20;83.80;;;;;;5077655;28;20036;-58
2021/03/08 01:58:17;;;;;;;10.18;5.88;;;5.20;83.80;;;;;;5076988;28;20039;-58
2021/03/08 02:00:42;;;;;;;9.18;5.05;;;5.10;83.60;;;;;;5072822;28;20019;-58
2021/03/08 02:03:08;;;;;;;13.45;6.32;;;5.10;83.60;;;;;;5077291;28;20884;-58
2021/03/08 02:05:40;;;;;;;10.32;5.70;;;5.10;83.60;;;;;;5076956;28;20028;-58
2021/03/08 02:08:08;;;;;;;11.05;6.35;;;5.10;83.80;;;;;;5076946;28;20036;-57
2021/03/08 02:10:40;;;;;;;10.43;5.53;;;5.00;83.80;;;;;;5077773;28;20040;-58
2021/03/08 02:13:20;;;;;;;10.45;6.00;;;5.00;83.70;;;;;;5077860;28;20396;-58
2021/03/08 02:16:32;;;;;;;8.80;5.70;;;5.00;84.50;;;;;;5077188;28;20093;-58
2021/03/08 02:19:06;;;;;;;13.18;5.60;;;5.00;83.80;;;;;;5034549;28;20039;-57
2021/03/08 02:21:35;;;;;;;9.02;5.18;;;4.90;83.80;;;;;;5076810;28;20499;-58
2021/03/08 02:24:00;;;;;;;10.43;5.35;;;4.90;83.80;;;;;;5078952;28;20028;-57
2021/03/08 02:26:40;;;;;;;8.57;5.20;;;4.90;83.90;;;;;;5079502;28;20028;-57
2021/03/08 02:29:53;;;;;;;9.65;5.72;;;4.90;83.60;;;;;;5077266;28;20071;-58
2021/03/08 02:32:47;;;;;;;14.60;6.20;;;4.90;84.30;;;;;;5077215;28;20044;-58
2021/03/08 02:35:19;;;;;;;10.50;5.00;;;4.80;84.00;;;;;;5076637;28;20036;-58
2021/03/08 02:37:50;;;;;;;11.23;6.30;;;4.80;84.00;;;;;;5075509;28;20040;-58
2021/03/08 02:40:20;;;;;;;10.48;4.70;;;4.70;84.20;;;;;;5077223;28;20040;-58
2021/03/08 02:42:51;;;;;;;8.23;4.93;;;4.70;83.70;;;;;;5076846;28;20048;-57
2021/03/08 02:45:18;;;;;;;9.77;5.28;;;4.60;83.90;;;;;;5076739;28;20043;-58
2021/03/08 02:47:49;;;;;;;9.27;5.15;;;4.60;84.10;;;;;;5076456;28;20560;-58
2021/03/08 02:50:18;;;;;;;11.48;5.07;;;4.50;84.10;;;;;;5075961;28;20051;-58
2021/03/08 02:52:50;;;;;;;7.53;4.88;;;4.50;83.90;;;;;;5076205;28;20638;-58
2021/03/08 02:55:17;;;;;;;10.10;5.28;;;4.30;83.70;;;;;;5076430;28;20127;-58
2021/03/08 02:57:45;;;;;;;9.07;4.80;;;4.30;83.60;;;;;;5070679;28;20092;-58
2021/03/08 03:00:12;;;;;;;8.23;4.63;;;4.10;83.40;;;;;;5076397;28;20043;-58
2021/03/08 03:02:41;;;;;;;9.13;4.93;;;4.00;83.30;;;;;;5076630;28;20032;-58
2021/03/08 03:05:12;;;;;;;8.75;4.47;;;3.90;83.60;;;;;;5075714;28;20028;-58
2021/03/08 03:07:42;;;;;;;8.35;4.22;;;3.80;83.60;;;;;;5076346;28;20518;-58
2021/03/08 03:10:09;;;;;;;9.13;4.78;;;3.70;83.50;;;;;;5076019;28;20145;-58
2021/03/08 03:12:36;;;;;;;8.57;4.80;;;3.60;83.60;;;;;;5075996;28;20036;-57
2021/03/08 03:15:05;;;;;;;8.13;3.85;;;3.40;83.40;;;;;;5075706;28;20130;-58
2021/03/08 03:17:34;;;;;;;9.98;5.18;;;3.30;83.60;;;;;;5075656;28;20032;-58
2021/03/08 03:20:00;;;;;;;8.73;4.97;;;3.20;83.70;;;;;;5075923;28;20031;-58
2021/03/08 03:22:28;;;;;;;9.90;4.80;;;3.20;84.10;;;;;;5076286;28;20882;-58
2021/03/08 03:24:55;;;;;;;9.98;4.35;;;3.10;84.30;;;;;;5075925;28;20059;-58
2021/03/08 03:27:23;;;;;;;9.57;4.15;;;2.90;84.20;;;;;;5075473;28;20116;-58
2021/03/08 03:29:50;;;;;;;9.10;4.05;;;2.90;85.20;;;;;;5075797;28;20040;-56
2021/03/08 03:32:17;;;;;;;8.60;4.47;;;2.90;84.80;;;;;;5075551;28;20488;-58
2021/03/08 03:34:45;;;;;;;9.55;4.13;;;2.80;84.80;;;;;;5075323;28;20036;-58
2021/03/08 03:37:13;;;;;;;7.03;3.95;;;2.70;84.70;;;;;;5074765;28;20910;-58
2021/03/08 03:39:41;;;;;;;7.05;4.00;;;2.70;84.50;;;;;;5075523;28;20057;-58
2021/03/08 03:42:07;;;;;;;7.72;4.32;;;2.60;84.90;;;;;;5075640;28;20028;-58
2021/03/08 03:44:33;;;;;;;9.68;4.28;;;2.50;85.10;;;;;;5075353;28;20032;-58
2021/03/08 03:46:59;;;;;;;9.77;4.43;;;2.50;85.20;;;;;;5075084;28;20642;-58
2021/03/08 03:49:24;;;;;;;9.23;4.18;;;2.40;85.30;;;;;;5074608;28;20100;-58
2021/03/08 03:51:50;;;;;;;8.32;3.83;;;2.40;85.50;;;;;;5075422;28;20035;-58
2021/03/08 03:54:16;;;;;;;8.40;3.97;;;2.30;85.80;;;;;;5074511;28;20041;-58
2021/03/08 03:56:51;;;;;;;6.40;3.75;;;2.30;86.00;;;;;;5074542;28;20040;-58
2021/03/08 03:59:39;;;;;;;7.13;3.58;;;2.30;86.20;;;;;;5073970;28;20044;-58
2021/03/08 04:02:14;;;;;;;6.53;3.53;;;2.30;86.10;;;;;;5074747;28;20036;-58
2021/03/08 04:04:51;;;;;;;7.70;3.60;;;2.20;86.00;;;;;;5074613;28;20543;-58
2021/03/08 04:07:18;;;;;;;6.38;3.33;;;2.20;86.20;;;;;;5075017;28;20111;-57
2021/03/08 04:09:48;;;;;;;7.00;3.55;;;2.20;86.20;;;;;;5075609;28;20040;-58
2021/03/08 04:12:18;;;;;;;6.90;3.05;;;2.20;86.20;;;;;;5074429;28;20078;-57
2021/03/08 04:14:47;;;;;;;6.00;3.05;;;2.10;86.10;;;;;;5075857;28;20458;-58
2021/03/08 04:17:15;;;;;;;5.30;3.00;;;2.10;86.00;;;;;;5075903;28;20066;-58
2021/03/08 04:19:41;;;;;;;8.32;3.28;;;2.10;86.10;;;;;;5074698;28;20511;-57
2021/03/08 04:22:09;;;;;;;5.32;2.97;;;2.10;86.00;;;;;;5076955;28;20055;-58
2021/03/08 04:24:37;;;;;;;9.70;2.80;;;2.00;86.00;;;;;;5077208;28;20028;-57
2021/03/08 04:27:06;;;;;;;7.25;3.03;;;2.00;85.90;;;;;;5076281;28;20497;-57
2021/03/08 04:29:37;;;;;;;7.28;3.00;;;2.00;85.90;;;;;;5081975;28;20032;-58
2021/03/08 04:32:05;;;;;;;7.63;2.95;;;1.90;85.60;;;;;;5082459;28;20551;-57
2021/03/08 04:34:31;;;;;;;5.70;2.80;;;1.90;85.80;;;;;;5081434;28;20040;-56
2021/03/08 04:36:59;;;;;;;6.22;2.92;;;1.90;85.90;;;;;;5079818;28;20032;-58
2021/03/08 04:39:30;;;;;;;6.05;2.88;;;1.90;85.70;;;;;;5079078;28;20692;-57
2021/03/08 04:41:56;;;;;;;5.25;2.65;;;1.80;85.80;;;;;;5078696;28;20024;-58
2021/03/08 04:44:23;;;;;;;4.22;2.38;;;1.80;85.60;;;;;;5077549;28;20428;-57
2021/03/08 04:46:50;;;;;;;4.82;2.03;;;1.80;85.40;;;;;;5078260;28;20097;-57
2021/03/08 04:49:17;;;;;;;6.15;2.78;;;1.70;85.40;;;;;;5077872;28;20032;-57
2021/03/08 04:51:46;;;;;;;6.28;2.45;;;1.70;85.00;;;;;;5078330;28;20511;-57
2021/03/08 04:54:13;;;;;;;4.50;2.00;;;1.70;84.80;;;;;;5078615;28;20052;-57
2021/03/08 04:56:41;;;;;;;5.00;2.25;;;1.60;84.90;;;;;;5077603;28;20588;-58
2021/03/08 04:59:07;;;;;;;9.02;2.45;;;1.60;84.90;;;;;;5079217;28;20035;-57
2021/03/08 05:01:34;;;;;;;5.18;2.00;;;1.60;84.90;;;;;;5078792;28;20078;-58
2021/03/08 05:04:06;;;;;;;7.93;1.98;;;1.50;84.90;;;;;;5079249;28;20039;-58
2021/03/08 05:06:36;;;;;;;3.65;2.28;;;1.50;84.90;;;;;;5079005;28;20515;-58
2021/03/08 05:09:03;;;;;;;4.00;2.35;;;1.50;84.90;;;;;;5079856;28;20028;-58
2021/03/08 05:11:29;;;;;;;5.32;2.03;;;1.40;85.00;;;;;;5079376;28;20063;-58
2021/03/08 05:13:57;;;;;;;4.32;2.30;;;1.40;84.80;;;;;;5079905;28;20515;-58
2021/03/08 05:16:24;;;;;;;7.30;1.88;;;1.40;84.80;;;;;;5076752;28;20488;-58
2021/03/08 05:18:50;;;;;;;6.30;2.20;;;1.40;84.50;;;;;;5078693;28;20134;-58
2021/03/08 05:21:17;;;;;;;7.25;2.60;;;1.30;84.40;;;;;;5078036;28;20119;-58
2021/03/08 05:23:44;;;;;;;5.00;2.47;;;1.30;84.30;;;;;;5073530;28;20071;-58
2021/03/08 05:26:11;;;;;;;5.85;1.98;;;1.20;84.50;;;;;;5078608;28;20040;-57
2021/03/08 05:28:37;;;;;;;7.50;2.38;;;1.20;84.50;;;;;;5078477;28;20040;-56
2021/03/08 05:31:04;;;;;;;4.00;1.75;;;1.20;84.60;;;;;;5078758;28;20035;-58
2021/03/08 05:33:32;;;;;;;4.43;1.73;;;1.10;84.60;;;;;;5078649;28;20040;-58
2021/03/08 05:35:59;;;;;;;5.10;2.40;;;1.10;84.80;;;;;;5078002;28;20119;-58
2021/03/08 05:38:30;;;;;;;4.95;1.98;;;1.10;84.80;;;;;;5078637;28;20558;-59
2021/03/08 05:41:15;;;;;;;4.60;1.80;;;1.10;84.80;;;;;;5076820;28;20047;-58
2021/03/08 05:43:45;;;;;;;4.03;1.88;;;1.10;84.50;;;;;;5078578;28;20028;-58
2021/03/08 05:46:26;;;;;;;5.07;1.95;;;1.10;84.60;;;;;;5077892;28;20047;-58
2021/03/08 05:49:11;;;;;;;3.55;1.98;;;1.10;84.50;;;;;;5077825;28;20035;-58
2021/03/08 05:52:11;;;;;;;5.22;2.53;;;1.10;84.50;;;;;;5077198;28;20085;-58
2021/03/08 05:55:11;;;;;;;4.78;1.98;;;1.10;84.40;;;;;;5077904;28;20039;-60
2021/03/08 05:57:55;;;;;;;7.78;2.72;;;1.10;84.20;;;;;;5077043;28;20078;-59
2021/03/08 06:01:01;;;;;;;3.35;1.70;;;1.10;84.30;;;;;;5073869;28;20043;-58
2021/03/08 06:03:48;;;;;;;5.40;2.55;;;1.00;84.30;;;;;;5072374;28;20024;-58
2021/03/08 06:06:41;;;;;;;8.93;1.88;;;1.00;84.10;;;;;;5078155;28;20043;-58
2021/03/08 06:09:25;;;;;;;7.20;2.00;;;1.00;84.10;;;;;;5077734;28;20031;-58
2021/03/08 06:12:08;;;;;;;6.10;1.88;;;1.00;84.40;;;;;;5078270;28;20105;-58
2021/03/08 06:14:42;;;;;;;7.95;2.17;;;1.00;84.80;;;;;;5077314;28;20031;-59
2021/03/08 06:17:20;;;;;;;4.82;2.28;;;1.10;84.90;;;;;;5076737;28;20097;-59
2021/03/08 06:19:46;;;;;;;3.20;2.13;;;1.10;84.80;;;;;;5071324;28;20613;-60
2021/03/08 06:22:16;;;;;;;6.18;1.73;;;1.10;84.80;;;;;;5077621;28;20032;-57
2021/03/08 06:24:44;;;;;;;5.55;1.80;;;1.10;84.80;;;;;;5077066;28;20036;-55
2021/03/08 06:27:12;;;;;;;4.80;1.75;;;1.10;84.30;;;;;;5077428;28;20563;-56
2021/03/08 06:29:39;;;;;;;5.18;1.92;;;1.20;85.10;;;;;;5077379;28;20154;-56
2021/03/08 06:32:06;;;;;;;4.90;1.70;;;1.20;84.60;;;;;;5077113;28;20788;-54
2021/03/08 06:34:33;;;;;;;8.00;2.10;;;1.20;84.50;;;;;;5075786;28;20032;-57
2021/03/08 06:37:04;;;;;;;4.30;2.00;;;1.30;84.50;;;;;;5077165;28;20042;-55
2021/03/08 06:39:35;;;;;;;4.07;1.80;;;1.30;84.60;;;;;;5079951;28;20060;-56
2021/03/08 06:42:02;;;;;;;4.03;1.70;;;1.40;84.60;;;;;;5079954;28;20039;-57
2021/03/08 06:44:28;;;;;;;7.43;2.25;;;1.40;84.60;;;;;;5080423;28;20020;-56
2021/03/08 06:46:54;;;;;;;3.97;2.40;;;1.40;84.80;;;;;;5077915;28;20105;-56
2021/03/08 06:49:20;;;;;;;5.10;2.00;;;1.50;84.90;;;;;;5077756;28;20032;-56
2021/03/08 06:52:08;;;;;;;5.53;2.10;;;1.50;84.80;;;;;;5075858;28;20768;-57
2021/03/08 06:54:36;;;;;;;5.53;2.05;;;1.60;84.90;;;;;;5076480;28;20042;-57
2021/03/08 06:57:25;;;;;;;3.72;1.70;;;1.60;84.80;;;;;;5075835;28;20487;-57
2021/03/08 07:00:08;;;;;;;6.75;1.80;;;1.70;84.80;;;;;;5072490;28;20040;-57
2021/03/08 07:02:39;;;;;;;5.13;1.60;;;1.70;85.00;;;;;;5075885;28;20040;-57
2021/03/08 07:05:21;;;;;;;6.20;2.20;;;1.80;84.90;;;;;;5076276;28;20044;-57
2021/03/08 07:07:47;;;;;;;9.43;2.28;;;1.90;84.40;;;;;;5071479;28;20032;-57
2021/03/08 07:10:14;;;;;;;4.00;2.03;;;1.90;84.40;;;;;;5076232;28;20035;-57
2021/03/08 07:12:50;;;;;;;5.38;1.80;;;1.90;84.50;;;;;;5076299;28;20070;-57
2021/03/08 07:15:17;;;;;;;4.03;1.67;;;2.00;84.20;;;;;;5075895;28;20070;-57
2021/03/08 07:17:43;;;;;;;5.40;1.95;;;2.00;84.00;;;;;;5071005;28;20038;-57
2021/03/08 07:20:14;;;;;;;4.20;1.75;;;2.10;84.00;;;;;;5076212;28;20024;-57
2021/03/08 07:22:41;;;;;;;4.53;2.08;;;2.20;83.80;;;;;;5076435;28;20044;-57
2021/03/08 07:25:31;;;;;;;3.08;1.52;;;2.10;83.20;;;;;;5075484;28;20763;-57
2021/03/08 07:28:02;;;;;;;6.38;2.03;;;2.30;83.80;;;;;;5073223;28;20791;-59
2021/03/08 07:30:31;;;;;;;5.45;1.92;;;2.30;83.40;;;;;;5076355;28;20028;-56
2021/03/08 07:33:15;;;;;;;4.30;2.10;;;2.40;82.60;;;;;;5075598;28;20039;-56
2021/03/08 07:35:45;;;;;;;4.50;1.77;;;2.50;82.30;;;;;;5075992;28;20028;-57
2021/03/08 07:38:16;;;;;;;5.22;1.70;;;2.50;82.30;;;;;;5075027;28;20031;-57
2021/03/08 07:40:45;;;;;;;5.75;1.75;;;2.70;82.60;;;;;;5076454;28;20034;-58
2021/03/08 07:43:24;;;;;;;7.30;1.70;;;3.30;80.10;;;;;;5075971;28;20112;-58
2021/03/08 07:45:51;;;;;;;4.63;1.42;;;4.40;76.50;;;;;;5071435;28;20036;-57
2021/03/08 07:48:20;;;;;;;2.08;1.17;;;5.30;71.50;;;;;;5075632;28;20645;-57
2021/03/08 07:50:50;;;;;;;3.10;1.40;;;6.20;67.50;;;;;;5071618;28;20618;-58
2021/03/08 07:53:27;;;;;;;5.65;1.52;;;7.00;65.40;;;;;;5072938;28;20077;-57
2021/03/08 07:55:54;;;;;;;3.10;1.27;;;7.70;62.10;;;;;;5071425;28;20043;-58
2021/03/08 07:58:20;;;;;;;4.60;1.50;;;8.40;59.60;;;;;;5074727;28;20695;-57
2021/03/08 08:00:45;;;;;;;4.20;1.40;;;8.70;58.60;;;;;;5075513;28;20032;-57
2021/03/08 08:03:11;;;;;;;4.43;1.58;;;8.80;57.40;;;;;;5071582;28;20035;-57
2021/03/08 08:05:37;;;;;;;9.45;2.25;;;8.70;57.20;;;;;;5075536;28;20038;-58
2021/03/08 08:08:07;;;;;;;2.50;1.27;;;8.70;57.90;;;;;;5074132;28;20110;-58
2021/03/08 08:10:33;;;;;;;3.65;2.03;;;8.60;57.10;;;;;;5073466;28;20046;-57
2021/03/08 08:13:02;;;;;;;4.22;1.77;;;8.60;57.80;;;;;;5074663;28;20032;-59
2021/03/08 08:15:30;;;;;;;1.98;1.13;;;8.60;56.60;;;;;;5074072;28;20035;-58
2021/03/08 08:17:59;;;;;;;5.03;1.25;;;8.50;58.20;;;;;;5075471;28;20780;-58
2021/03/08 08:20:28;;;;;;;2.30;1.23;;;8.50;56.60;;;;;;5074950;28;20047;-58
2021/03/08 08:22:57;;;;;;;5.63;1.63;;;8.30;57.50;;;;;;5074836;28;20039;-58
2021/03/08 08:25:25;;;;;;;3.30;1.23;;;8.10;58.50;;;;;;5074702;28;20082;-58
2021/03/08 08:27:51;;;;;;;5.45;1.90;;;7.80;59.30;;;;;;5075505;28;20101;-58
2021/03/08 08:30:20;;;;;;;1.92;1.30;;;7.80;59.70;;;;;;5074916;28;20039;-58
2021/03/08 08:32:54;;;;;;;3.17;1.20;;;7.80;61.20;;;;;;5068288;28;20875;-58
2021/03/08 08:35:31;;;;;;;2.50;1.20;;;7.80;59.60;;;;;;5074638;28;20036;-58
2021/03/08 08:38:14;;;;;;;3.60;1.00;;;7.80;60.80;;;;;;5074474;28;20043;-58
2021/03/08 08:40:41;;;;;;;3.05;1.40;;;7.70;56.60;;;;;;5076204;28;20059;-58
2021/03/08 08:43:27;;;;;;;4.65;3.30;;;7.60;58.70;;;;;;5075722;28;20055;-61
2021/03/08 08:45:54;;;;;;;8.90;1.60;;;7.70;59.80;;;;;;5076122;28;20048;-62
2021/03/08 08:48:20;;;;;;;2.08;1.40;;;7.70;58.80;;;;;;5077500;28;20260;-62
2021/03/08 08:50:54;;;;;;;4.10;1.20;;;7.80;57.10;;;;;;5077783;28;20024;-62
2021/03/08 08:53:35;;;;;;;1.90;0.80;;;7.80;58.30;;;;;;5076867;28;20036;-61
2021/03/08 08:56:04;;;;;;;5.30;1.23;;;7.90;57.10;;;;;;5076318;28;20039;-61
2021/03/08 08:58:48;;;;;;;4.25;1.10;;;8.00;58.00;;;;;;5076311;28;20102;-61
2021/03/08 09:01:14;;;;;;;3.97;1.25;;;8.30;57.60;;;;;;5076174;28;20031;-62
2021/03/08 09:03:58;;;;;;;1.90;1.35;;;8.40;58.80;;;;;;5076149;28;20063;-62
2021/03/08 09:06:45;;;;;;;3.70;1.13;;;8.30;57.00;;;;;;5076236;28;20042;-62
2021/03/08 09:09:14;;;;;;;4.75;1.40;;;8.20;58.40;;;;;;5073259;28;20036;-63
2021/03/08 09:11:51;;;;;;;4.20;1.33;;;8.40;56.70;;;;;;5076189;28;20127;-62
2021/03/08 09:14:21;;;;;;;2.13;1.13;;;8.70;53.00;;;;;;5075355;28;20088;-62
2021/03/08 09:16:47;;;;;;;6.50;1.20;;;8.90;53.50;;;;;;5072333;28;20031;-62
2021/03/08 09:19:22;;;;;;;3.38;1.15;;;9.40;53.90;;;;;;5077975;28;20039;-61
2021/03/08 09:21:48;;;;;;;2.25;0.70;;;9.90;50.10;;;;;;5077779;28;20589;-61
2021/03/08 09:24:31;;;;;;;2.67;1.30;;;10.50;49.20;;;;;;5078587;28;20028;-61
2021/03/08 09:26:57;;;;;;;1.88;0.80;;;11.40;48.40;;;;;;5074669;28;20036;-62
2021/03/08 09:29:23;;;;;;;2.38;0.93;;;11.90;42.30;;;;;;5078401;28;20096;-61
2021/03/08 09:31:54;;;;;;;2.78;0.95;;;12.10;44.60;;;;;;5076564;28;20519;-62
2021/03/08 09:34:20;;;;;;;1.15;0.50;;;12.40;43.20;;;;;;5078328;28;20031;-62
2021/03/08 09:36:47;;;;;;;4.18;0.80;;;12.50;40.70;;;;;;5077384;28;20050;-64
2021/03/08 09:39:12;;;;;;;1.27;0.60;;;12.20;40.80;;;;;;5078279;28;20024;-61
2021/03/08 09:41:38;;;;;;;1.08;0.43;;;11.40;41.20;;;;;;5077429;28;20117;-63
2021/03/08 09:44:05;;;;;;;3.83;0.80;;;10.70;43.80;;;;;;5075615;28;20050;-62
2021/03/08 09:46:31;;;;;;;3.45;0.82;;;10.20;44.80;;;;;;5077794;28;20066;-59
2021/03/08 09:48:56;;;;;;;1.05;0.47;;;9.70;44.00;;;;;;5077294;28;20032;-57
2021/03/08 09:51:22;;;;;;;1.92;1.15;;;9.40;45.30;;;;;;5078150;28;20043;-58
2021/03/08 09:53:50;;;;;;;1.42;0.73;;;9.50;47.80;;;;;;5074698;28;20123;-59
2021/03/08 09:56:22;;;;;;;3.50;0.50;;;9.70;44.60;;;;;;5078570;28;20269;-60
2021/03/08 09:58:59;;;;;;;2.88;0.57;;;10.00;40.90;;;;;;5078018;28;20114;-60
2021/03/08 10:01:24;;;;;;;1.70;0.75;;;10.80;39.60;;;;;;5074797;28;20043;-60
2021/03/08 10:03:50;;;;;;;3.45;0.75;;;11.50;40.30;;;;;;5078038;28;20028;-60
2021/03/08 10:06:24;;;;;;;1.25;0.75;;;12.00;36.70;;;;;;5077854;28;20032;-58
2021/03/08 10:08:49;;;;;;;2.58;0.68;;;12.50;36.60;;;;;;5073868;28;20193;-58
2021/03/08 10:11:41;;;;;;;2.92;0.77;;;12.70;34.20;;;;;;5076994;28;20776;-59
2021/03/08 10:14:20;;;;;;;0.93;0.60;;;12.60;34.30;;;;;;5072549;28;20079;-59
2021/03/08 10:16:46;;;;;;;3.15;0.52;;;12.00;35.10;;;;;;5078331;28;20028;-59
2021/03/08 10:19:12;;;;;;;2.15;0.50;;;11.40;35.60;;;;;;5078691;28;20510;-59
2021/03/08 10:21:41;;;;;;;1.65;0.75;;;11.30;34.40;;;;;;5076565;28;20063;-59
2021/03/08 10:24:08;;;;;;;0.60;0.40;;;11.10;36.50;;;;;;5077449;28;20035;-58
2021/03/08 10:26:33;;;;;;;1.73;0.60;;;11.10;36.50;;;;;;5077094;28;20039;-59
2021/03/08 10:28:59;;;;;;;0.65;0.35;;;10.80;36.10;;;;;;5077405;28;20043;-60
2021/03/08 10:31:27;;;;;;;1.38;0.47;;;10.70;37.10;;;;;;5077521;28;20070;-59
2021/03/08 10:34:00;;;;;;;0.63;0.40;;;10.60;38.50;;;;;;5077839;28;20040;-59
2021/03/08 10:36:28;;;;;;;1.08;0.40;;;10.20;40.40;;;;;;5073811;28;20031;-58
2021/03/08 10:38:59;;;;;;;0.57;0.32;;;9.90;37.40;;;;;;5077554;28;20066;-59
2021/03/08 10:41:30;;;;;;;2.40;0.60;;;9.50;38.20;;;;;;5074814;28;20038;-59
2021/03/08 10:43:57;;;;;;;1.58;0.45;;;9.20;38.00;;;;;;5076858;28;20040;-58
2021/03/08 10:46:36;;;;;;;0.95;0.40;;;9.00;38.40;;;;;;5077585;28;20040;-57
2021/03/08 10:49:03;;;;;;;0.55;0.30;;;8.70;38.70;;;;;;5077380;28;20213;-58
2021/03/08 10:51:30;;;;;;;2.25;0.57;;;8.50;37.20;;;;;;5078008;28;20159;-55
2021/03/08 10:54:04;;;;;;;2.92;0.57;;;8.20;36.20;;;;;;5076637;28;20086;-58
2021/03/08 10:56:32;;;;;;;1.45;0.43;;;8.00;39.30;;;;;;5075685;28;20093;-59
2021/03/08 10:58:59;;;;;;;0.55;0.47;;;8.00;39.90;;;;;;5077119;28;20059;-59
2021/03/08 11:01:26;;;;;;;5.47;0.63;;;8.00;43.00;;;;;;5078006;28;20035;-58
2021/03/08 11:03:52;;;;;;;1.30;0.70;;;8.00;40.70;;;;;;5077470;28;20024;-57
2021/03/08 11:06:20;;;;;;;0.95;0.32;;;8.00;40.90;;;;;;5077422;28;20040;-58
2021/03/08 11:09:02;;;;;;;1.35;0.60;;;7.80;37.80;;;;;;5078123;28;20054;-58
2021/03/08 11:11:31;;;;;;;2.70;0.80;;;7.70;39.30;;;;;;5075649;28;20039;-58
2021/03/08 11:14:02;;;;;;;2.42;1.00;;;7.60;41.00;;;;;;5077211;28;20119;-58
2021/03/08 11:16:29;;;;;;;2.50;0.70;;;7.60;42.40;;;;;;5076994;28;20050;-59
2021/03/08 11:19:16;;;;;;;1.08;0.47;;;7.70;41.00;;;;;;5077363;28;20571;-58
2021/03/08 11:21:42;;;;;;;0.93;0.80;;;7.60;41.20;;;;;;5076615;28;20070;-58
2021/03/08 11:24:15;;;;;;;5.38;0.75;;;7.60;40.00;;;;;;5077115;28;20036;-58
2021/03/08 11:26:41;;;;;;;1.50;0.50;;;7.60;43.30;;;;;;5076562;28;20059;-59
2021/03/08 11:29:23;;;;;;;1.55;0.47;;;7.60;39.40;;;;;;5076830;28;20400;-58
2021/03/08 11:31:53;;;;;;;0.35;0.35;;;7.50;40.30;;;;;;5073158;28;20777;-58
2021/03/08 11:34:42;;;;;;;1.35;0.63;;;7.50;38.70;;;;;;5077137;28;20035;-57
2021/03/08 11:37:16;;;;;;;3.33;0.70;;;7.50;42.80;;;;;;5075055;28;20040;-58
2021/03/08 11:39:46;;;;;;;0.95;0.45;;;7.50;44.90;;;;;;5077289;28;20130;-58
2021/03/08 11:42:13;;;;;;;0.85;0.45;;;7.50;39.60;;;;;;5076067;28;20039;-58
2021/03/08 11:44:39;;;;;;;0.70;0.68;;;7.50;37.10;;;;;;5076684;28;20086;-59
2021/03/08 11:47:06;;;;;;;0.88;0.40;;;7.50;37.00;;;;;;5076710;28;20529;-58
2021/03/08 11:49:32;;;;;;;2.40;0.65;;;7.50;39.00;;;;;;5076609;28;20032;-58
2021/03/08 11:51:59;;;;;;;0.63;0.40;;;7.50;40.30;;;;;;5075982;28;20036;-58
2021/03/08 11:54:24;;;;;;;1.73;0.70;;;7.60;39.40;;;;;;5075952;28;20040;-57
2021/03/08 11:56:51;;;;;;;1.38;0.52;;;7.60;42.70;;;;;;5076739;28;20051;-58
2021/03/08 11:59:18;;;;;;;1.75;0.50;;;7.60;39.70;;;;;;5071246;28;20077;-57
2021/03/08 12:01:43;;;;;;;0.52;0.40;;;7.60;38.60;;;;;;5071826;28;20043;-58
2021/03/08 12:04:09;;;;;;;1.42;0.60;;;7.60;38.60;;;;;;5075167;28;20479;-57
2021/03/08 12:06:35;;;;;;;1.05;0.50;;;7.60;40.50;;;;;;5074577;28;20036;-61
2021/03/08 12:09:00;;;;;;;1.85;0.47;;;7.60;42.10;;;;;;5076397;28;20032;-61
2021/03/08 12:11:26;;;;;;;2.97;0.85;;;7.70;38.90;;;;;;5075973;28;20035;-61
2021/03/08 12:13:52;;;;;;;0.65;0.50;;;7.70;38.90;;;;;;5076052;28;20552;-61
2021/03/08 12:16:18;;;;;;;1.15;0.50;;;7.80;41.70;;;;;;5074045;28;20040;-61
2021/03/08 12:18:44;;;;;;;3.03;0.80;;;7.80;40.70;;;;;;5076259;28;20043;-61
2021/03/08 12:21:09;;;;;;;0.60;0.40;;;7.80;39.80;;;;;;5074409;28;20085;-61
2021/03/08 12:23:35;;;;;;;2.05;0.60;;;7.90;42.00;;;;;;5076289;28;20044;-58
2021/03/08 12:26:01;;;;;;;2.90;0.70;;;7.90;37.50;;;;;;5073988;28;20063;-58
2021/03/08 12:28:27;;;;;;;2.75;0.50;;;7.90;37.30;;;;;;5076062;28;20111;-57
2021/03/08 12:30:53;;;;;;;0.90;0.50;;;7.80;36.20;;;;;;5074439;28;20040;-58
2021/03/08 12:33:19;;;;;;;1.83;0.40;;;7.80;35.80;;;;;;5073016;28;20036;-58
2021/03/08 12:35:44;;;;;;;0.60;0.40;;;7.80;38.00;;;;;;5073413;28;20058;-58
2021/03/08 12:38:10;;;;;;;1.05;0.40;;;7.70;36.40;;;;;;5075883;28;20028;-59
2021/03/08 12:40:36;;;;;;;2.15;0.50;;;7.80;38.00;;;;;;5076445;28;20024;-59
2021/03/08 12:43:02;;;;;;;2.03;0.35;;;7.80;36.40;;;;;;5075340;28;20117;-59
2021/03/08 12:45:28;;;;;;;2.47;0.45;;;7.80;35.60;;;;;;5074511;28;20032;-58
2021/03/08 12:47:53;;;;;;;3.60;0.70;;;8.00;39.10;;;;;;5075986;28;20771;-59
2021/03/08 12:50:20;;;;;;;1.65;0.60;;;8.10;36.50;;;;;;5077757;28;20032;-61
2021/03/08 12:52:46;;;;;;;1.38;0.70;;;8.00;34.90;;;;;;5077673;28;20028;-62
2021/03/08 12:55:12;;;;;;;1.63;0.55;;;8.00;37.50;;;;;;5076397;28;20096;-61
2021/03/08 12:57:38;;;;;;;1.92;0.70;;;8.10;36.70;;;;;;5080818;28;20036;-61
2021/03/08 13:00:05;;;;;;;1.98;0.50;;;8.10;40.10;;;;;;5081493;28;20039;-61
2021/03/08 13:02:31;;;;;;;2.83;0.70;;;8.20;39.80;;;;;;5082424;28;20060;-62
2021/03/08 13:04:57;;;;;;;1.45;0.60;;;8.20;39.40;;;;;;5079004;28;20100;-61
2021/03/08 13:07:23;;;;;;;1.67;0.82;;;8.20;38.90;;;;;;5079300;28;20147;-61